Time;durP1;ratioP1;P1;durP2;ratioP2;P2;SDS_P1;SDS_P2;PMS_P1;PMS_P2;Temp;Humidity;BMP_temperature;BMP_pressure;BME280_temperature;BME280_humidity;BME280_pressure;Samples;Min_cycle;Max_cycle;Signal;HPM_P1;HPM_P2
2023/07/11 00:02:01;;;;;;;2.42;1.80;;;23.10;55.70;;;;;;4914835;29;20130;-49
2023/07/11 00:04:36;;;;;;;1.73;1.40;;;23.00;55.60;;;;;;4912649;29;20119;-49
2023/07/11 00:07:05;;;;;;;1.60;1.50;;;23.00;55.70;;;;;;4921077;29;20047;-50
2023/07/11 00:09:36;;;;;;;2.90;1.60;;;23.00;55.80;;;;;;4915249;29;20481;-49
2023/07/11 00:12:06;;;;;;;2.70;1.67;;;22.90;55.90;;;;;;4912906;29;20119;-51
2023/07/11 00:14:36;;;;;;;2.50;1.80;;;22.90;56.00;;;;;;4912445;29;20047;-51
2023/07/11 00:17:05;;;;;;;;;;;22.90;56.60;;;;;;4897479;29;20048;-48
2023/07/11 00:19:51;;;;;;;2.55;1.35;;;22.90;55.30;;;;;;4914879;29;20426;-50
2023/07/11 00:22:21;;;;;;;1.85;1.60;;;22.90;56.20;;;;;;4912607;29;20655;-48
2023/07/11 00:24:48;;;;;;;4.50;1.60;;;22.80;55.90;;;;;;4900241;29;20581;-49
2023/07/11 00:27:21;;;;;;;3.42;1.50;;;22.80;56.10;;;;;;4912841;29;20078;-50
2023/07/11 00:29:51;;;;;;;1.70;1.60;;;22.70;56.20;;;;;;4913578;29;20040;-49
2023/07/11 00:32:18;;;;;;;1.95;1.85;;;22.70;56.30;;;;;;4926643;29;20102;-50
2023/07/11 00:34:45;;;;;;;1.58;1.48;;;22.70;56.40;;;;;;4912633;29;20037;-46
2023/07/11 00:37:12;;;;;;;1.55;1.25;;;22.70;56.50;;;;;;4896403;29;20048;-47
2023/07/11 00:39:38;;;;;;;2.10;1.50;;;22.60;56.50;;;;;;4903444;29;20083;-50
2023/07/11 00:42:10;;;;;;;1.83;1.23;;;22.60;56.50;;;;;;4898543;29;20052;-48
2023/07/11 00:45:02;;;;;;;1.83;1.60;;;22.60;56.80;;;;;;4912513;29;20040;-48
2023/07/11 00:47:36;;;;;;;1.50;1.27;;;22.50;56.90;;;;;;4913352;29;20135;-47
2023/07/11 00:50:07;;;;;;;4.68;2.17;;;22.50;56.40;;;;;;4914854;29;20032;-48
2023/07/11 00:52:36;;;;;;;1.85;1.60;;;22.50;56.70;;;;;;4912194;29;20038;-49
2023/07/11 00:55:08;;;;;;;1.88;1.38;;;22.40;56.60;;;;;;4899997;29;20561;-46
2023/07/11 00:57:38;;;;;;;1.70;1.30;;;22.40;56.90;;;;;;4896253;29;20461;-50
2023/07/11 01:00:08;;;;;;;2.75;1.60;;;22.40;56.80;;;;;;4896315;29;20044;-50
2023/07/11 01:02:35;;;;;;;1.98;1.58;;;22.30;56.90;;;;;;4907096;29;20509;-50
2023/07/11 01:05:03;;;;;;;4.75;1.80;;;22.30;56.90;;;;;;4895211;29;20075;-50
2023/07/11 01:07:38;;;;;;;1.98;1.55;;;22.30;57.00;;;;;;4924494;29;20044;-46
2023/07/11 01:10:09;;;;;;;3.65;1.48;;;22.30;57.20;;;;;;4901036;29;20408;-50
2023/07/11 01:12:44;;;;;;;4.97;2.10;;;22.20;57.10;;;;;;4899146;29;20048;-50
2023/07/11 01:15:15;;;;;;;2.35;2.03;;;22.20;57.50;;;;;;4915648;29;20386;-48
2023/07/11 01:17:42;;;;;;;2.58;1.60;;;22.10;57.10;;;;;;4917968;29;20120;-51
2023/07/11 01:20:12;;;;;;;1.85;1.63;;;22.20;57.30;;;;;;4899235;29;20412;-49
2023/07/11 01:22:41;;;;;;;1.45;1.27;;;22.10;57.30;;;;;;4899579;29;20048;-50
2023/07/11 01:25:16;;;;;;;1.88;1.30;;;22.10;57.40;;;;;;4916118;29;20048;-50
2023/07/11 01:27:47;;;;;;;2.58;1.33;;;22.00;57.80;;;;;;4916275;29;20040;-49
2023/07/11 01:30:17;;;;;;;2.25;1.75;;;22.00;57.60;;;;;;4898731;29;20564;-46
2023/07/11 01:32:49;;;;;;;1.73;1.58;;;22.00;57.70;;;;;;4921499;29;20043;-49
2023/07/11 01:35:17;;;;;;;2.25;1.50;;;22.00;58.00;;;;;;4916773;29;20457;-48
2023/07/11 01:37:44;;;;;;;4.25;1.83;;;22.00;57.80;;;;;;4915705;29;20119;-47
2023/07/11 01:40:11;;;;;;;2.63;1.73;;;21.90;57.80;;;;;;4900108;29;20501;-49
2023/07/11 01:42:45;;;;;;;;;;;21.90;58.00;;;;;;4916402;29;20119;-47
2023/07/11 01:45:16;;;;;;;2.38;1.40;;;22.00;57.30;;;;;;4898402;29;19929;-46
2023/07/11 01:47:44;;;;;;;4.93;1.73;;;21.90;57.40;;;;;;4916210;29;20044;-49
2023/07/11 01:50:11;;;;;;;3.00;1.83;;;21.90;57.70;;;;;;4901476;29;20036;-49
2023/07/11 01:52:38;;;;;;;2.78;2.00;;;21.90;57.80;;;;;;4902634;29;20102;-48
2023/07/11 01:55:07;;;;;;;3.45;1.60;;;21.90;57.90;;;;;;4921722;29;20048;-50
2023/07/11 01:57:38;;;;;;;2.90;1.50;;;21.80;58.00;;;;;;4899528;29;20059;-47
2023/07/11 02:00:09;;;;;;;1.67;1.58;;;21.80;58.20;;;;;;4898065;29;20289;-46
2023/07/11 02:02:38;;;;;;;1.90;1.70;;;21.80;58.10;;;;;;4916748;29;20068;-49
2023/07/11 02:05:05;;;;;;;2.15;1.67;;;21.80;58.20;;;;;;4897739;29;20048;-49
2023/07/11 02:07:32;;;;;;;2.13;1.55;;;21.80;58.40;;;;;;4923395;29;20083;-47
2023/07/11 02:10:01;;;;;;;1.70;1.60;;;21.80;58.40;;;;;;4899285;29;20054;-50
2023/07/11 02:12:28;;;;;;;2.78;1.45;;;21.80;58.60;;;;;;4915132;29;20076;-50
2023/07/11 02:15:00;;;;;;;2.10;1.60;;;21.70;58.60;;;;;;4897946;29;20040;-47
2023/07/11 02:17:26;;;;;;;1.63;1.50;;;21.70;58.90;;;;;;4914604;29;20747;-49
2023/07/11 02:19:56;;;;;;;2.22;1.38;;;21.70;58.60;;;;;;4916521;29;20135;-47
2023/07/11 02:22:35;;;;;;;2.50;1.67;;;21.70;58.70;;;;;;4914329;29;20047;-49
2023/07/11 02:25:02;;;;;;;2.28;1.38;;;21.70;58.60;;;;;;4915047;29;20036;-46
2023/07/11 02:27:30;;;;;;;2.13;1.20;;;21.70;58.60;;;;;;4915322;29;20040;-50
2023/07/11 02:29:59;;;;;;;4.10;2.05;;;21.70;58.70;;;;;;4914503;29;20051;-50
2023/07/11 02:32:28;;;;;;;2.83;1.83;;;21.70;58.80;;;;;;4918581;29;20477;-50
2023/07/11 02:34:55;;;;;;;4.10;1.85;;;21.70;58.80;;;;;;4914327;29;20036;-50
2023/07/11 02:37:21;;;;;;;2.65;1.60;;;21.60;58.70;;;;;;4915053;29;20043;-48
2023/07/11 02:39:51;;;;;;;2.65;2.45;;;21.60;58.60;;;;;;4916303;29;20070;-46
2023/07/11 02:42:18;;;;;;;1.42;1.33;;;21.60;58.90;;;;;;4914324;29;20079;-49
2023/07/11 02:44:44;;;;;;;2.75;2.08;;;21.60;58.60;;;;;;4914237;29;20036;-46
2023/07/11 02:47:14;;;;;;;1.60;1.30;;;21.60;58.60;;;;;;4915431;29;20039;-50
2023/07/11 02:49:41;;;;;;;2.70;2.47;;;21.50;58.70;;;;;;4914795;29;20161;-49
2023/07/11 02:52:10;;;;;;;2.42;1.60;;;21.50;58.70;;;;;;4927323;29;20040;-49
2023/07/11 02:54:39;;;;;;;;;;;21.50;58.80;;;;;;4899093;29;20102;-50
2023/07/11 02:57:11;;;;;;;5.60;1.48;;;21.50;58.30;;;;;;4919356;29;19976;-49
2023/07/11 02:59:40;;;;;;;2.60;1.63;;;21.50;58.50;;;;;;4914648;29;20048;-49
2023/07/11 03:02:07;;;;;;;2.38;1.63;;;21.40;58.70;;;;;;4915524;29;20048;-47
2023/07/11 03:04:36;;;;;;;1.77;1.67;;;21.40;58.70;;;;;;4913684;29;20103;-46
2023/07/11 03:07:06;;;;;;;5.20;2.20;;;21.40;58.80;;;;;;4922349;29;20516;-50
2023/07/11 03:09:38;;;;;;;1.58;1.40;;;21.40;58.90;;;;;;4913792;29;20100;-46
2023/07/11 03:12:06;;;;;;;3.20;1.70;;;21.30;58.90;;;;;;4914292;29;20051;-51
2023/07/11 03:14:35;;;;;;;3.00;2.20;;;21.30;59.00;;;;;;4913476;29;20449;-47
2023/07/11 03:17:01;;;;;;;3.42;1.73;;;21.30;59.10;;;;;;4913164;29;20051;-46
2023/07/11 03:19:28;;;;;;;2.08;1.65;;;21.30;59.20;;;;;;4913133;29;20695;-48
2023/07/11 03:21:57;;;;;;;3.00;1.90;;;21.20;59.30;;;;;;4914897;29;20080;-45
2023/07/11 03:24:24;;;;;;;2.58;1.77;;;21.20;59.30;;;;;;4913689;29;20044;-50
2023/07/11 03:26:51;;;;;;;4.20;1.73;;;21.20;59.40;;;;;;4913840;29;20555;-47
2023/07/11 03:29:17;;;;;;;2.28;1.70;;;21.20;60.10;;;;;;4913476;29;20120;-50
2023/07/11 03:31:44;;;;;;;2.20;2.00;;;21.10;59.50;;;;;;4919589;29;20036;-45
2023/07/11 03:34:11;;;;;;;4.57;1.83;;;21.10;59.50;;;;;;4915670;29;20047;-46
2023/07/11 03:36:38;;;;;;;3.72;2.17;;;21.10;59.60;;;;;;4913365;29;20054;-49
2023/07/11 03:39:12;;;;;;;10.27;2.22;;;21.10;59.80;;;;;;4913432;29;20043;-46
2023/07/11 03:41:39;;;;;;;1.98;1.77;;;21.10;59.90;;;;;;4915344;29;20067;-47
2023/07/11 03:44:09;;;;;;;3.42;1.73;;;21.00;59.80;;;;;;4912674;29;20472;-49
2023/07/11 03:46:35;;;;;;;3.17;1.80;;;21.10;60.00;;;;;;4913161;29;20052;-48
2023/07/11 03:49:02;;;;;;;2.22;2.03;;;21.00;60.00;;;;;;4913756;29;20042;-48
2023/07/11 03:51:29;;;;;;;3.40;2.35;;;21.00;60.10;;;;;;4913814;29;20096;-48
2023/07/11 03:54:04;;;;;;;4.10;2.38;;;21.00;60.10;;;;;;4913854;29;20107;-50
2023/07/11 03:56:30;;;;;;;3.33;1.92;;;21.00;60.50;;;;;;4912621;29;20120;-49
2023/07/11 03:59:02;;;;;;;2.53;2.00;;;21.00;60.20;;;;;;4913281;29;20071;-49
2023/07/11 04:01:28;;;;;;;2.88;1.75;;;21.00;60.30;;;;;;4914168;29;20131;-50
2023/07/11 04:03:55;;;;;;;4.75;2.63;;;21.10;60.40;;;;;;4899738;29;20044;-49
2023/07/11 04:06:22;;;;;;;2.55;1.88;;;21.00;60.40;;;;;;4920682;29;20082;-50
2023/07/11 04:08:53;;;;;;;1.88;1.73;;;21.10;60.60;;;;;;4914304;29;20096;-50
2023/07/11 04:11:25;;;;;;;5.07;3.10;;;21.10;60.60;;;;;;4899343;29;20087;-48
2023/07/11 04:13:52;;;;;;;2.70;1.92;;;21.10;60.50;;;;;;4913109;29;20572;-46
2023/07/11 04:16:21;;;;;;;3.28;1.85;;;21.10;60.60;;;;;;4912612;29;20463;-48
2023/07/11 04:18:51;;;;;;;4.00;1.95;;;21.10;60.70;;;;;;4915566;29;20103;-49
2023/07/11 04:21:19;;;;;;;3.60;2.28;;;21.10;60.60;;;;;;4913251;29;20048;-50
2023/07/11 04:23:55;;;;;;;4.88;1.95;;;21.10;60.70;;;;;;4913678;29;20051;-50
2023/07/11 04:26:21;;;;;;;2.67;1.95;;;21.10;61.10;;;;;;4912523;29;20075;-47
2023/07/11 04:28:48;;;;;;;2.67;2.47;;;21.10;60.80;;;;;;4880978;29;20044;-49
2023/07/11 04:31:15;;;;;;;3.72;2.05;;;21.10;60.80;;;;;;4919535;29;20032;-51
2023/07/11 04:33:52;;;;;;;2.78;1.98;;;21.10;61.00;;;;;;4917921;29;20048;-49
2023/07/11 04:36:19;;;;;;;4.05;2.67;;;21.10;61.60;;;;;;4912541;29;20114;-48
2023/07/11 04:38:46;;;;;;;2.80;2.35;;;21.10;61.00;;;;;;4912937;29;20046;-49
2023/07/11 04:41:12;;;;;;;5.53;2.80;;;21.20;61.10;;;;;;4913539;29;20048;-52
2023/07/11 04:43:39;;;;;;;2.20;2.03;;;21.20;61.20;;;;;;4932565;29;20106;-49
2023/07/11 04:46:09;;;;;;;6.15;1.85;;;21.20;61.30;;;;;;4921502;29;20043;-50
2023/07/11 04:48:36;;;;;;;3.60;1.73;;;21.20;61.40;;;;;;4927199;29;20072;-53
2023/07/11 04:51:06;;;;;;;4.35;2.20;;;21.30;61.50;;;;;;4916191;29;20042;-49
2023/07/11 04:53:34;;;;;;;2.60;1.98;;;21.30;61.70;;;;;;4920567;29;20138;-52
2023/07/11 04:56:04;;;;;;;5.57;2.17;;;21.30;61.60;;;;;;4915458;29;20068;-51
2023/07/11 04:58:33;;;;;;;3.55;2.00;;;21.30;61.80;;;;;;4916111;29;20058;-50
2023/07/11 05:01:01;;;;;;;3.38;2.08;;;21.30;61.90;;;;;;4917164;29;20044;-51
2023/07/11 05:03:29;;;;;;;2.88;2.10;;;21.30;61.90;;;;;;4930725;29;20051;-51
2023/07/11 05:05:58;;;;;;;5.63;2.67;;;21.40;62.00;;;;;;4934693;29;20047;-51
2023/07/11 05:08:25;;;;;;;3.92;1.75;;;21.40;62.10;;;;;;4920406;29;20051;-53
2023/07/11 05:10:58;;;;;;;4.60;2.10;;;21.40;62.10;;;;;;4914882;29;20044;-52
2023/07/11 05:13:25;;;;;;;2.60;1.98;;;21.50;62.50;;;;;;4919213;29;20227;-52
2023/07/11 05:15:57;;;;;;;4.45;1.85;;;21.50;62.00;;;;;;4914991;29;20075;-50
2023/07/11 05:18:24;;;;;;;2.97;2.40;;;21.60;62.20;;;;;;4920556;29;20054;-50
2023/07/11 05:20:54;;;;;;;2.97;1.95;;;21.60;62.10;;;;;;4928960;29;20131;-55
2023/07/11 05:23:26;;;;;;;5.53;2.15;;;21.60;62.30;;;;;;4919525;29;20123;-51
2023/07/11 05:25:54;;;;;;;4.53;2.47;;;21.70;62.20;;;;;;4929470;29;20048;-53
2023/07/11 05:28:25;;;;;;;5.40;2.05;;;21.70;62.50;;;;;;4926516;29;20362;-51
2023/07/11 05:30:52;;;;;;;5.65;2.28;;;21.80;62.20;;;;;;4928368;29;20041;-48
2023/07/11 05:33:20;;;;;;;5.78;2.33;;;21.90;62.00;;;;;;4917740;29;20659;-49
2023/07/11 05:36:31;;;;;;;6.22;2.38;;;21.90;62.00;;;;;;4914537;29;20047;-49
2023/07/11 05:39:05;;;;;;;3.38;2.17;;;22.00;62.00;;;;;;4914480;29;20079;-49
2023/07/11 05:41:33;;;;;;;11.15;2.65;;;22.10;61.40;;;;;;4917860;29;20130;-53
2023/07/11 05:44:00;;;;;;;6.22;2.30;;;22.10;61.50;;;;;;4915861;29;20075;-52
2023/07/11 05:46:27;;;;;;;4.28;2.53;;;22.20;61.00;;;;;;4921578;29;20052;-49
2023/07/11 05:48:55;;;;;;;5.80;2.50;;;22.20;61.20;;;;;;4914408;29;20068;-51
2023/07/11 05:51:23;;;;;;;5.45;2.20;;;22.30;61.00;;;;;;4904229;29;20604;-52
2023/07/11 05:53:50;;;;;;;6.60;2.63;;;22.40;61.00;;;;;;4913869;29;20044;-52
2023/07/11 05:56:18;;;;;;;6.45;2.90;;;22.40;61.30;;;;;;4920239;29;20066;-48
2023/07/11 05:58:47;;;;;;;5.50;2.90;;;22.50;61.00;;;;;;4913675;29;20648;-49
2023/07/11 06:01:17;;;;;;;3.40;2.03;;;22.60;61.00;;;;;;4919493;29;20067;-48
2023/07/11 06:03:45;;;;;;;2.42;2.08;;;22.60;61.20;;;;;;4918914;29;20067;-48
2023/07/11 06:06:16;;;;;;;3.13;2.20;;;22.70;60.60;;;;;;4919684;29;20416;-51
2023/07/11 06:08:43;;;;;;;2.05;1.88;;;22.80;60.20;;;;;;4913812;29;20064;-51
2023/07/11 06:11:10;;;;;;;2.95;2.13;;;22.80;59.80;;;;;;4918818;29;20047;-52
2023/07/11 06:13:39;;;;;;;3.58;1.92;;;22.90;59.90;;;;;;4918446;29;20545;-52
2023/07/11 06:16:16;;;;;;;5.53;2.38;;;23.00;59.60;;;;;;4917587;29;20508;-51
2023/07/11 06:18:43;;;;;;;4.88;2.17;;;23.00;59.20;;;;;;4927911;29;20044;-49
2023/07/11 06:21:11;;;;;;;2.53;2.20;;;23.10;58.90;;;;;;4905937;29;20552;-50
2023/07/11 06:23:38;;;;;;;2.28;1.90;;;23.20;59.20;;;;;;4925385;29;20052;-49
2023/07/11 06:26:07;;;;;;;2.78;2.35;;;23.20;58.80;;;;;;4916964;29;20063;-53
2023/07/11 06:28:34;;;;;;;5.68;1.70;;;23.30;58.60;;;;;;4925973;29;20051;-51
2023/07/11 06:31:05;;;;;;;3.78;1.98;;;23.40;58.70;;;;;;4921901;29;20046;-49
2023/07/11 06:33:34;;;;;;;3.03;2.33;;;23.40;58.70;;;;;;4919278;29;20040;-50
2023/07/11 06:36:04;;;;;;;3.17;2.05;;;23.50;58.20;;;;;;4916095;29;20040;-50
2023/07/11 06:38:31;;;;;;;2.67;1.98;;;23.60;58.50;;;;;;4914960;29;20096;-53
2023/07/11 06:40:58;;;;;;;2.92;2.00;;;23.70;58.30;;;;;;4914546;29;20409;-50
2023/07/11 06:43:26;;;;;;;2.45;2.20;;;23.70;58.40;;;;;;4916032;29;20088;-51
2023/07/11 06:45:56;;;;;;;3.35;1.60;;;23.80;58.00;;;;;;4917401;29;20039;-53
2023/07/11 06:48:28;;;;;;;3.20;2.25;;;23.80;57.70;;;;;;4916360;29;20056;-49
2023/07/11 06:51:04;;;;;;;3.30;2.10;;;23.90;57.80;;;;;;4915946;29;20453;-52
2023/07/11 06:53:34;;;;;;;3.63;1.90;;;24.00;57.50;;;;;;4915291;29;20048;-53
2023/07/11 06:56:03;;;;;;;2.83;1.85;;;24.10;57.10;;;;;;4914022;29;20037;-49
2023/07/11 06:58:30;;;;;;;3.00;1.92;;;24.20;57.10;;;;;;4916005;29;20681;-52
2023/07/11 07:01:06;;;;;;;5.57;2.28;;;24.20;57.20;;;;;;4914073;29;20127;-53
2023/07/11 07:03:45;;;;;;;2.55;1.92;;;24.30;57.00;;;;;;4898238;29;20047;-53
2023/07/11 07:06:13;;;;;;;6.20;2.58;;;24.40;56.50;;;;;;4915179;29;20048;-53
2023/07/11 07:08:41;;;;;;;4.18;2.28;;;24.50;56.50;;;;;;4913071;29;20635;-52
2023/07/11 07:11:08;;;;;;;4.03;1.73;;;24.60;55.80;;;;;;4916369;29;20405;-51
2023/07/11 07:13:35;;;;;;;2.20;2.00;;;24.70;56.30;;;;;;4926516;29;20035;-51
2023/07/11 07:16:02;;;;;;;3.97;2.20;;;24.70;55.60;;;;;;4928046;29;20501;-51
2023/07/11 07:18:32;;;;;;;3.63;1.77;;;24.80;55.30;;;;;;4928691;29;20090;-52
2023/07/11 07:20:59;;;;;;;2.55;1.98;;;24.90;55.00;;;;;;4914729;29;20669;-52
2023/07/11 07:23:27;;;;;;;1.73;1.63;;;25.00;54.90;;;;;;4902381;29;20405;-51
2023/07/11 07:25:58;;;;;;;4.03;1.98;;;25.10;55.00;;;;;;4898873;29;20040;-52
2023/07/11 07:28:27;;;;;;;4.53;2.25;;;25.10;54.60;;;;;;4916327;29;20056;-50
2023/07/11 07:30:56;;;;;;;2.90;1.85;;;25.20;54.70;;;;;;4900497;29;20492;-52
2023/07/11 07:33:25;;;;;;;2.58;1.92;;;25.40;54.50;;;;;;4905163;29;20047;-50
2023/07/11 07:35:57;;;;;;;6.10;2.10;;;25.40;54.30;;;;;;4894450;29;20068;-51
2023/07/11 07:38:27;;;;;;;;;;;25.50;54.10;;;;;;4913885;29;20044;-51
2023/07/11 07:40:57;;;;;;;2.85;1.80;;;25.60;54.40;;;;;;4911703;29;19986;-51
2023/07/11 07:43:25;;;;;;;3.72;1.85;;;25.70;53.90;;;;;;4912442;29;20047;-49
2023/07/11 07:45:55;;;;;;;2.45;1.88;;;25.80;54.10;;;;;;4910914;29;20040;-50
2023/07/11 07:48:22;;;;;;;3.42;1.85;;;25.90;53.50;;;;;;4915875;29;20055;-49
2023/07/11 07:50:48;;;;;;;4.05;2.20;;;25.90;53.60;;;;;;4912875;29;20114;-51
2023/07/11 07:53:16;;;;;;;6.43;2.25;;;26.00;53.70;;;;;;4913761;29;20064;-50
2023/07/11 07:55:44;;;;;;;2.13;1.90;;;26.10;53.10;;;;;;4911082;29;20122;-54
2023/07/11 07:58:13;;;;;;;3.88;2.03;;;26.20;52.30;;;;;;4912244;29;20561;-49
2023/07/11 08:00:44;;;;;;;3.13;1.58;;;26.20;52.20;;;;;;4912247;29;20052;-49
2023/07/11 08:03:11;;;;;;;2.65;1.67;;;26.30;51.40;;;;;;4913860;29;20118;-48
2023/07/11 08:05:38;;;;;;;3.30;1.65;;;26.40;51.50;;;;;;4910971;29;20059;-51
2023/07/11 08:08:05;;;;;;;5.20;2.20;;;26.50;51.00;;;;;;4919930;29;20050;-51
2023/07/11 08:10:32;;;;;;;2.67;1.40;;;26.60;50.30;;;;;;4911535;29;20063;-52
2023/07/11 08:12:59;;;;;;;2.83;1.52;;;26.60;50.00;;;;;;4919185;29;20044;-52
2023/07/11 08:15:25;;;;;;;3.00;2.13;;;26.70;50.50;;;;;;4909744;29;20079;-52
2023/07/11 08:17:52;;;;;;;2.50;2.03;;;26.80;49.90;;;;;;4918565;29;20068;-49
2023/07/11 08:20:19;;;;;;;5.47;1.73;;;26.90;49.50;;;;;;4900946;29;20501;-51
2023/07/11 08:22:45;;;;;;;5.18;2.17;;;26.90;49.40;;;;;;4919453;29;20040;-53
2023/07/11 08:25:14;;;;;;;6.15;1.83;;;27.00;49.10;;;;;;4895244;29;20044;-49
2023/07/11 08:27:41;;;;;;;2.83;1.92;;;27.10;49.00;;;;;;4925353;29;20509;-51
2023/07/11 08:30:08;;;;;;;3.28;1.73;;;27.10;49.20;;;;;;4910522;29;20087;-53
2023/07/11 08:32:34;;;;;;;3.30;2.10;;;27.20;49.00;;;;;;4921017;29;20508;-50
2023/07/11 08:35:01;;;;;;;4.65;2.25;;;27.20;48.70;;;;;;4916768;29;20037;-52
2023/07/11 08:37:28;;;;;;;3.15;1.70;;;27.30;49.00;;;;;;4916827;29;20071;-54
2023/07/11 08:39:55;;;;;;;4.47;1.98;;;27.40;48.50;;;;;;4911536;29;20044;-52
2023/07/11 08:42:34;;;;;;;3.80;1.60;;;27.40;47.50;;;;;;4917346;29;20043;-50
2023/07/11 08:45:21;;;;;;;2.33;1.30;;;27.50;47.80;;;;;;4911120;29;20532;-50
2023/07/11 08:48:09;;;;;;;2.25;1.42;;;27.60;48.30;;;;;;4915061;29;20127;-53
2023/07/11 08:50:46;;;;;;;4.32;1.20;;;27.60;45.50;;;;;;4908306;29;20049;-54
2023/07/11 08:53:20;;;;;;;3.95;1.70;;;27.70;45.70;;;;;;4923931;29;20043;-52
2023/07/11 08:55:52;;;;;;;4.18;1.50;;;27.70;44.30;;;;;;4927623;29;20050;-54
2023/07/11 08:58:21;;;;;;;;;;;27.80;43.80;;;;;;4929969;29;20050;-50
2023/07/11 09:00:50;;;;;;;3.05;1.20;;;27.90;45.80;;;;;;4907517;29;19975;-53
2023/07/11 09:03:27;;;;;;;2.42;1.40;;;27.90;43.80;;;;;;4927526;29;20074;-53
2023/07/11 09:06:22;;;;;;;2.78;1.20;;;27.90;43.30;;;;;;4921200;29;20075;-50
2023/07/11 09:08:54;;;;;;;4.78;1.48;;;28.00;44.00;;;;;;4914596;29;20063;-50
2023/07/11 09:11:27;;;;;;;;;;;28.00;43.60;;;;;;4914689;29;20058;-54
2023/07/11 09:14:22;;;;;;;2.78;1.23;;;28.10;45.00;;;;;;4895672;29;19923;-52
2023/07/11 09:17:35;;;;;;;5.47;1.80;;;28.10;43.50;;;;;;4912489;29;20619;-51
2023/07/11 09:20:24;;;;;;;2.90;1.38;;;28.10;42.80;;;;;;4913789;29;20050;-53
2023/07/11 09:23:25;;;;;;;3.35;1.50;;;28.20;43.30;;;;;;4912921;29;20044;-51
2023/07/11 09:26:11;;;;;;;2.67;1.60;;;28.20;43.90;;;;;;4918667;29;20064;-51
2023/07/11 09:28:40;;;;;;;4.18;1.75;;;28.30;42.80;;;;;;4915842;29;20056;-51
2023/07/11 09:31:13;;;;;;;2.47;1.52;;;28.30;42.80;;;;;;4918249;29;20040;-50
2023/07/11 09:33:42;;;;;;;2.92;1.40;;;28.40;42.70;;;;;;4920352;29;20040;-54
2023/07/11 09:36:30;;;;;;;1.60;1.50;;;28.40;43.20;;;;;;4932729;29;20557;-54
2023/07/11 09:39:12;;;;;;;4.63;1.80;;;28.50;42.50;;;;;;4914828;29;20040;-54
2023/07/11 09:41:55;;;;;;;4.10;2.28;;;28.50;42.10;;;;;;4920329;29;20044;-50
2023/07/11 09:44:22;;;;;;;2.65;1.40;;;28.60;41.70;;;;;;4916945;29;20544;-51
2023/07/11 09:46:49;;;;;;;6.20;2.47;;;28.60;42.30;;;;;;4922168;29;20417;-53
2023/07/11 09:49:24;;;;;;;2.50;1.48;;;28.60;42.00;;;;;;4929348;29;20067;-52
2023/07/11 09:51:54;;;;;;;4.20;1.60;;;28.70;41.50;;;;;;4929041;29;20054;-53
2023/07/11 09:54:25;;;;;;;3.17;1.83;;;28.70;41.60;;;;;;4928568;29;20122;-52
2023/07/11 09:56:52;;;;;;;2.92;1.67;;;28.80;42.40;;;;;;4931975;29;20700;-50
2023/07/11 09:59:20;;;;;;;1.98;1.13;;;28.90;42.00;;;;;;4931729;29;20430;-52
2023/07/11 10:01:55;;;;;;;4.80;1.60;;;28.90;41.30;;;;;;4921405;29;20040;-54
2023/07/11 10:04:24;;;;;;;3.10;1.80;;;29.00;41.20;;;;;;4915987;29;20044;-52
2023/07/11 10:06:58;;;;;;;3.55;1.75;;;29.10;41.80;;;;;;4914797;29;20071;-51
2023/07/11 10:09:42;;;;;;;3.75;2.33;;;29.10;41.20;;;;;;4914520;29;20044;-53
2023/07/11 10:12:17;;;;;;;2.55;1.42;;;29.20;41.40;;;;;;4920470;29;20493;-54
2023/07/11 10:14:47;;;;;;;2.40;1.77;;;29.30;40.70;;;;;;4913735;29;20036;-50
2023/07/11 10:17:23;;;;;;;1.85;1.50;;;29.30;40.30;;;;;;4916539;29;20099;-53
2023/07/11 10:19:59;;;;;;;3.33;1.63;;;29.30;40.00;;;;;;4914504;29;20055;-53
2023/07/11 10:22:43;;;;;;;;;;;29.40;41.50;;;;;;4918457;29;20509;-54
2023/07/11 10:25:19;;;;;;;1.95;1.58;;;29.50;42.10;;;;;;4929200;29;19926;-53
2023/07/11 10:27:52;;;;;;;4.28;2.05;;;29.60;40.30;;;;;;4931250;29;20048;-53
2023/07/11 10:30:28;;;;;;;2.65;1.30;;;29.60;40.30;;;;;;4929972;29;20051;-54
2023/07/11 10:33:07;;;;;;;3.83;1.58;;;29.70;41.10;;;;;;4929410;29;20036;-54
2023/07/11 10:35:55;;;;;;;2.35;1.50;;;29.80;40.80;;;;;;4928720;29;20114;-54
2023/07/11 10:38:29;;;;;;;3.22;1.42;;;29.90;40.50;;;;;;4928452;29;20264;-54
2023/07/11 10:41:00;;;;;;;10.48;2.38;;;30.00;40.00;;;;;;4929863;29;20051;-55
2023/07/11 10:43:36;;;;;;;1.83;1.50;;;30.10;40.40;;;;;;4929090;29;20051;-53
2023/07/11 10:46:37;;;;;;;6.25;1.75;;;30.20;40.40;;;;;;4931654;29;20044;-49
2023/07/11 10:49:12;;;;;;;2.75;1.50;;;30.30;39.50;;;;;;4921325;29;20060;-51
2023/07/11 10:52:09;;;;;;;2.92;1.45;;;30.40;39.10;;;;;;4930340;29;20418;-54
2023/07/11 10:54:45;;;;;;;3.78;1.50;;;30.40;39.00;;;;;;4896177;29;20134;-50
2023/07/11 10:57:36;;;;;;;2.10;1.63;;;30.50;40.00;;;;;;4914109;29;20085;-53
2023/07/11 11:00:16;;;;;;;5.80;2.35;;;30.50;40.00;;;;;;4915519;29;20051;-49
2023/07/11 11:03:07;;;;;;;6.22;1.58;;;30.50;39.90;;;;;;4917353;29;20044;-54
2023/07/11 11:05:38;;;;;;;2.63;1.63;;;30.50;40.20;;;;;;4913816;29;20481;-54
2023/07/11 11:08:13;;;;;;;3.95;2.20;;;30.60;39.80;;;;;;4926877;29;20043;-50
2023/07/11 11:10:47;;;;;;;3.28;1.70;;;30.60;39.10;;;;;;4914779;29;20082;-51
2023/07/11 11:13:16;;;;;;;2.80;1.63;;;30.60;40.30;;;;;;4918442;29;20111;-48
2023/07/11 11:16:08;;;;;;;3.05;2.05;;;30.70;41.00;;;;;;4897296;29;20044;-52
2023/07/11 11:18:54;;;;;;;2.22;1.50;;;30.70;40.80;;;;;;4914492;29;20048;-54
2023/07/11 11:21:32;;;;;;;2.38;1.58;;;30.90;39.60;;;;;;4914777;29;20040;-53
2023/07/11 11:24:32;;;;;;;3.15;2.17;;;30.90;39.30;;;;;;4916137;29;20040;-53
2023/07/11 11:27:03;;;;;;;3.70;1.80;;;31.00;39.00;;;;;;4919412;23;20060;-51
2023/07/11 11:29:55;;;;;;;3.90;1.60;;;31.10;40.10;;;;;;4912316;29;20548;-52
2023/07/11 11:33:07;;;;;;;3.95;1.50;;;31.20;40.00;;;;;;4901301;29;20085;-50
2023/07/11 11:35:46;;;;;;;2.53;1.60;;;31.30;39.90;;;;;;4887936;29;20048;-51
2023/07/11 11:38:30;;;;;;;2.03;1.40;;;31.50;38.80;;;;;;4889453;29;20523;-53
2023/07/11 11:41:04;;;;;;;1.95;1.30;;;31.60;39.40;;;;;;4889108;29;20431;-53
2023/07/11 11:43:32;;;;;;;1.38;1.20;;;31.60;39.40;;;;;;4894956;29;20107;-53
2023/07/11 11:46:20;;;;;;;5.32;1.98;;;31.70;39.10;;;;;;4889103;29;20067;-51
2023/07/11 11:48:53;;;;;;;2.75;1.70;;;31.80;39.40;;;;;;4889970;29;20048;-53
2023/07/11 11:51:24;;;;;;;5.10;1.60;;;31.80;38.40;;;;;;4877686;29;20048;-53
2023/07/11 11:54:16;;;;;;;2.03;1.65;;;31.80;38.20;;;;;;4887323;29;20123;-54
2023/07/11 11:56:46;;;;;;;2.20;1.58;;;31.90;38.90;;;;;;4893543;29;20092;-51
2023/07/11 11:59:25;;;;;;;5.78;1.80;;;31.90;38.70;;;;;;4895690;29;20072;-53
2023/07/11 12:01:55;;;;;;;1.98;1.58;;;31.90;39.00;;;;;;4881179;29;20041;-53
2023/07/11 12:05:02;;;;;;;2.20;1.80;;;31.90;39.20;;;;;;4888996;29;20382;-54
2023/07/11 12:07:36;;;;;;;1.98;1.40;;;32.00;39.00;;;;;;4857326;29;20057;-54
2023/07/11 12:10:22;;;;;;;2.20;1.73;;;32.00;38.70;;;;;;4894248;29;20502;-53
2023/07/11 12:12:55;;;;;;;2.45;1.88;;;32.00;37.80;;;;;;4886118;29;20123;-53
2023/07/11 12:15:30;;;;;;;3.67;1.80;;;32.00;39.00;;;;;;4894088;29;20151;-55
2023/07/11 12:18:33;;;;;;;3.40;2.42;;;32.00;39.40;;;;;;4899424;29;20123;-54
2023/07/11 12:21:16;;;;;;;2.00;1.67;;;32.10;39.00;;;;;;4877755;29;20091;-54
2023/07/11 12:23:45;;;;;;;4.18;2.00;;;32.20;38.50;;;;;;4891862;29;20482;-54
2023/07/11 12:26:25;;;;;;;1.75;1.63;;;32.20;39.20;;;;;;4892544;29;20064;-54
2023/07/11 12:28:53;;;;;;;3.77;1.90;;;32.20;37.90;;;;;;4887586;29;20051;-54
2023/07/11 12:31:25;;;;;;;1.95;1.63;;;32.30;37.80;;;;;;4891083;29;20044;-53
2023/07/11 12:34:11;;;;;;;4.17;1.67;;;32.30;38.30;;;;;;4891730;29;20032;-53
2023/07/11 12:36:53;;;;;;;1.85;1.75;;;32.40;38.90;;;;;;4895831;29;20323;-52
2023/07/11 12:39:28;;;;;;;3.20;2.03;;;32.50;39.20;;;;;;4895178;29;20489;-54
2023/07/11 12:42:09;;;;;;;2.33;1.45;;;32.50;38.90;;;;;;4864251;29;20052;-54
2023/07/11 12:44:38;;;;;;;4.68;1.88;;;32.70;38.50;;;;;;4893215;29;20057;-56
2023/07/11 12:47:12;;;;;;;4.43;1.90;;;32.70;37.90;;;;;;4893423;29;20499;-54
2023/07/11 12:49:41;;;;;;;4.32;2.00;;;32.80;38.20;;;;;;4892903;29;20055;-54
2023/07/11 12:52:14;;;;;;;3.10;1.90;;;32.90;38.10;;;;;;4879912;29;20266;-54
2023/07/11 12:54:42;;;;;;;3.70;1.90;;;33.00;37.30;;;;;;4890984;29;20458;-54
2023/07/11 12:57:19;;;;;;;3.40;1.60;;;33.00;37.90;;;;;;4893555;29;20586;-54
2023/07/11 12:59:45;;;;;;;5.40;2.33;;;33.20;37.30;;;;;;4894482;29;20036;-54
2023/07/11 13:02:16;;;;;;;3.33;1.50;;;33.30;37.30;;;;;;4892678;29;20055;-54
2023/07/11 13:04:53;;;;;;;3.40;1.80;;;33.30;37.20;;;;;;4896636;29;20089;-54
2023/07/11 13:07:24;;;;;;;1.98;1.58;;;33.50;36.90;;;;;;4880040;29;20051;-54
2023/07/11 13:09:54;;;;;;;1.95;1.40;;;33.60;36.10;;;;;;4894789;29;20079;-55
2023/07/11 13:12:24;;;;;;;5.85;1.63;;;33.70;37.30;;;;;;4894916;29;20044;-54
2023/07/11 13:14:52;;;;;;;2.35;1.73;;;33.80;36.10;;;;;;4899438;29;20036;-54